Main page
METAR-TAF:

METAR-TAF

Airports :

Cataratas del Iguazú International Airport

Iguaçu, Argentina

latitude: 25-44S, longitude: 054-28W, elevation: 270 m

Current weather observation

The report was made 22 minutes ago, at 06:00 UTC
Wind 4 kt from the Northeast
Temperature 25°C
Humidity 89%
Pressure 1007 hPa
Visibility 10 km or more
no clouds below 1500 m and no cumulonimbus

METAR: SARI 080600Z 04004KT CAVOK 25/23 Q1007 RMK PP000

Time: 03:22 (06:22 UTC)

Forecast

The report was made 1 hour and 22 minutes ago, at 05:00 UTC
Forecast valid from 08 at 06 UTC to 09 at 06 UTC
Wind 5 kt from the Northeast
Visibility 10 km or more
no clouds below 1500 m and no cumulonimbus

TAF: SARI 080500Z 0806/0906 05005KT CAVOK TX37/0819Z TN23/0809Z

Weather observations and forecasts of more than 4000 airports (METAR and TAF reports).

The available stations are represented by yellow and red dots on the map.

Hover mouse over dot to see the name of the station.

Then click to see weather observations and forecasts.

To change the map : click on the green buttons with a black cross to zoom in, on the green button with a dash to zoom out, or on the green arrows for adjacent maps.


METAR-TAF: